• Join FlightAware (Why Join?)
  • Login
  • US Flag 
09:46PM EDT


 

Airport Tracker/Info


-or-


 

Live Flight TrackerFlight Track Log ✈ DAL3974 ✈ 12-Apr-2013 ✈ KDTW - KMHT

Flight Track Log - Related Links

Times and Time Zones

All times are in EDT time to prevent confusion due to time zone crossing. See the DAL3974 flight status page for this flight to view local times or setup timezone preferences in your user account.

Time Position Orientation Groundspeed Altitude Reporting Facility
EDT Latitude Longitude Course Direction KTS MPH feet Rate Location/Type
08:04PM 42.2036 -83.3556 170° South 147 169 1,400  Level Cleveland Center
08:05PM 42.1747 -83.3486 170° South 193 222 2,800 2,100 Climbing Cleveland Center
08:06PM 42.1083 -83.3372 173° South 237 273 5,300 2,280 Climbing Cleveland Center
08:07PM 42.0539 -83.2567 132° Southeast 270 311 8,200 2,220 Climbing Cleveland Center
08:08PM 42.0958 -83.1550 61° Northeast 198 228 10,400 1,740 Climbing Cleveland Center
08:09PM 42.1419 -83.0447 61° Northeast 249 287 11,700 1,200 Climbing Cleveland Center
08:10PM 42.1906 -82.9206 62° Northeast 316 364 12,900 1,500 Climbing Cleveland Center
08:11PM 42.2389 -82.7906 63° Northeast 357 411 14,800 1,680 Climbing Cleveland Center
08:12PM 42.2850 -82.6686 63° Northeast 388 447 16,300 1,380 Climbing Cleveland Center
08:13PM 42.3353 -82.5381 62° Northeast 393 452 17,600 1,260 Climbing Cleveland Center
08:14PM 42.3628 -82.3872 76° East 398 458 18,900 1,140 Climbing Cleveland Center
08:15PM 42.3567 -82.2297 93° East 398 458 19,900 900 Climbing Cleveland Center
08:16PM 42.3525 -82.0694 92° East 411 473 20,800 900 Climbing Cleveland Center
08:17PM 42.3442 -81.9064 94° East 429 494 21,800 1,020 Climbing Cleveland Center
08:18PM 42.3397 -81.7461 92° East 429 494 22,900 1,020 Climbing Cleveland Center
08:19PM 42.3308 -81.5858 94° East 423 487 23,900 960 Climbing Cleveland Center
08:20PM 42.3236 -81.4256 93° East 423 487 24,900 900 Climbing Cleveland Center
08:21PM 42.3144 -81.2458 94° East 423 487 25,800 780 Climbing Cleveland Center
08:22PM 42.3069 -81.0858 94° East 423 487 26,500 600 Climbing Cleveland Center
08:23PM 42.2992 -80.9228 94° East 428 493 27,000 480 Climbing Cleveland Center
08:24PM 42.2892 -80.7572 95° East 439 505 27,500 480 Climbing Cleveland Center
08:25PM 42.2831 -80.5889 93° East 445 512 28,000 480 Climbing Cleveland Center
08:26PM 42.2997 -80.4175 82° East 445 512 28,500 480 Climbing Cleveland Center
08:27PM 42.3158 -80.2492 83° East 450 518 29,000 420 Climbing Cleveland Center
08:28PM 42.3319 -80.0944 82° East 460 529 29,400 480 Climbing Cleveland Center
08:29PM 42.3478 -79.8978 84° East 465 535 30,000 480 Climbing Cleveland Center
08:30PM 42.3653 -79.7289 82° East 465 535 30,400 420 Climbing Cleveland Center
08:31PM 42.3786 -79.5517 84° East 465 535 30,900 300 Climbing Cleveland Center
08:32PM 42.3956 -79.3797 82° East 470 541 31,000  Climbing Cleveland Center
08:33PM 42.4122 -79.1967 83° East 470 541 31,000  Level Cleveland Center
08:34PM 42.4267 -79.0136 84° East 477 549 31,000  Level Cleveland Center
08:35PM 42.4428 -78.8275 83° East 488 562 31,000  Level Cleveland Center
08:36PM 42.4586 -78.6442 83° East 488 562 31,000  Level Cleveland Center
08:37PM 42.4739 -78.4578 84° East 488 562 31,000  Level Cleveland Center
08:38PM 42.4892 -78.2714 84° East 493 567 31,000  Level Cleveland Center
08:39PM 42.5019 -78.0850 85° East 498 573 31,000  Level Cleveland Center
08:40PM 42.5144 -77.8986 85° East 498 573 31,000  Level Cleveland Center
08:41PM 42.5272 -77.7319 84° East 495 570 31,000  Level Cleveland Center
08:42PM 42.5433 -77.5450 83° East 495 570 31,000  Level Cleveland Center
08:44PM 42.5706 -77.1267 85° East 506 582 31,000  Level Boston Center
08:45PM 42.5825 -76.9356 85° East 506 582 31,000  Level Boston Center
08:46PM 42.5958 -76.7475 84° East 501 577 31,000  Level Boston Center
08:47PM 42.6094 -76.5508 85° East 501 577 31,000  Level Boston Center
08:48PM 42.6169 -76.3961 86° East 501 577 31,000  Level Boston Center
08:50PM 42.6281 -76.2142 85° East  Level FlightAware Approximate
08:50PM 42.6439 -75.9575 85° East 506 582 31,000  Level Boston Center
08:51PM 42.6542 -75.7631 86° East 511 588 31,000  Level Boston Center
08:52PM 42.6658 -75.5633 85° East 519 597 31,000  Level Boston Center
08:53PM 42.6772 -75.3772 85° East 514 592 31,000 -60 Level Boston Center
08:54PM 42.6853 -75.2222 86° East 514 592 30,900 -660 Descending Boston Center
08:55PM 42.6969 -74.9911 86° East 509 586 29,700 -1,020 Descending Boston Center
08:56PM 42.7050 -74.8050 87° East 509 586 29,000 -360 Descending Boston Center
08:57PM 42.7150 -74.6161 86° East 504 580 29,000 -60 Level Boston Center
08:58PM 42.7206 -74.4269 88° East 498 573 28,900 -540 Descending Boston Center
08:59PM 42.7281 -74.2378 87° East 498 573 27,900 -1,080 Descending Boston Center
09:00PM 42.7375 -74.0089 87° East 498 573 26,600 -1,260 Descending Boston Center
09:01PM 42.7442 -73.8197 87° East 493 567 25,400 -1,320 Descending Boston Center
09:02PM 42.7547 -73.6306 86° East 493 567 24,100 -1,140 Descending Boston Center
09:03PM 42.7606 -73.4608 87° East 498 573 23,200 -960 Descending Boston Center
09:04PM 42.7683 -73.2744 87° East 498 573 22,200 -1,080 Descending Boston Center
09:05PM 42.7736 -73.0933 88° East 492 566 21,100 -1,140 Descending Boston Center
09:06PM 42.7786 -72.9097 88° East 482 555 20,000 -1,560 Descending Boston Center
09:08PM 42.7833 -72.7483 88° East 455 524 18,000 -1,980 Descending Boston Center
09:09PM 42.7881 -72.5844 88° East 433 498 16,100 -1,980 Descending Boston Center
09:10PM 42.7922 -72.4286 88° East 421 484 14,100 -1,860 Descending Boston Center
09:10PM 42.7964 -72.2872 88° East 396 456 12,500 -1,620 Descending Boston Center
09:11PM 42.8044 -72.1628 85° East 346 398 11,000 -1,440 Descending Boston Center
09:12PM 42.8019 -72.0297 91° East 323 372 9,700 -1,200 Descending Boston Center
09:14PM 42.7911 -71.9364 99° East 312 359 8,700 -1,260 Descending Boston Center
09:15PM 42.7758 -71.8064 99° East 295 339 7,200 -1,500 Descending Boston Center
09:16PM 42.7586 -71.7078 103° East 290 334 5,800 -1,440 Descending Boston Center
09:17PM 42.7433 -71.6061 102° East 266 306 4,400 -1,320 Descending Boston Center
09:18PM 42.7322 -71.5356 102° East 222 255 3,200 -1,200 Descending Boston Center
09:18PM 42.7150 -71.4594 107° East 196 226 2,100 -660 Descending Boston Center
09:19PM 42.7292 -71.3972 73° East 185 213 2,000  Descending Boston Center
09:20PM 42.7661 -71.3514 42° Northeast 164 189 2,100  Climbing Boston Center
09:22PM 42.8039 -71.3592 351° North 148 170 2,100 -180 Level Boston Center
09:23PM 42.8583 -71.3892 338° Northwest 167 192 1,800 -600 Descending Boston Center
09:24PM 42.9003 -71.4169 334° Northwest 148 170 800 -660 Descending Boston Center
09:25PM 42.9358 -71.4389 336° Northwest 143 165 500 -300 Descending Boston Center
09:27PM 42.9328 -71.4358 180° South  Level Estimated